Leesville, Louisiana
Current Conditions -  °F | °C
As of 8:58 AM on Thursday 30 Oct 2014 (Local Time) from KPOE Reporting Station
Clear Clear  
Wind Chill: 57°   Ceiling: Unl
Heat Index: 57°   Visibility: 9mi
Dew Point: 46°   Wind: 7mph
Humidity: 66%   Direction: 80°E
Pressure: 30.16"   Gusts: NA
Location:  31.14°N, 93.26°W
Report Text: KPOE 301358Z AUTO 08006KT 9SM CLR 14/08 A3016 RMK AO2 SLP214 T01380075
Loading
Personal Weather Stations






























Interactive Weather Map
Tropical Storm Tracking
New forecast layout! Learn more

10-Day Weather Forecast

Advertisements
Track Severe Weather on mobile